Aeroporto :
LOGIN :

Iscrizione | Disclaimer

   EN    FR    IT 

 










Sommario :    VFR   VFR Marginale   IFR   IFR Intensivo   IFR Molto Intensivo
Visibilità : 
Base nubi : 
>= 8 km
>= 3000ft
5 / 8 km
1000 / 3000 ft
1500m / 5 km
500 / 1000 ft
800 / 1500m
200 / 500 ft
< 800m
< 200 ft
Simboli :   Temporali  Nebbia  Neve Forte  Precipitazioni Forti  Vento > 20 kt
SIGMETs :   Varie  Temporali  Ghiacco  Turbolenza  Onda orograficha  Ceneri Vulcaniche






- Altitudine del aeroporto : 915 ft
- Codice IATA : LUG


LSZA - Lugano

ULTIMO METAR :
  • 051420Z 21007KT 160V240 9999 FEW060 27/15 Q1006 NOSIG

METARs OBSOLETI :
  • 051350Z AUTO 18006KT 150V210 9999 NSC 27/15 Q1006
  • 051320Z 18006KT 9999 FEW060 27/15 Q1007 NOSIG
  • 051250Z 18005KT 140V210 9999 FEW060 27/15 Q1007 NOSIG
  • 051220Z 18005KT 130V210 9999 FEW060 26/15 Q1007 NOSIG
  • 051150Z 18005KT 130V210 9999 FEW060 25/16 Q1007 NOSIG

TAF TAF LSZA
Valido dal 05 a 12 ore il 05 a 21 ore UTC


051125Z 0512/0521 19005KT CAVOK
PROB30
TEMPO 0512/0519 9999 SCT110
ATIS : +41 22 417 40 88



MetMap, La meteo Aeronautica in un colpo d'occhio ! - Copyright ORBIFLY Dicembre 2007 - Disclaimer

ORBIFLY MET'MAP TEAM :

Programmazione e sviluppo : Alexandra Zaïnal
Concezione : Baudouin d'Aumeries
Aiuto per la programmazione : Marc-Olivier Méhu
Supporto tecnico e logistico : Manuel Goepfert
Aiuto per la traduzione : Arnaldo La Scala

Contatto : metmap@orbifly.com




FONTI E CREDITI :

   NOAA